createdAt,value
2019-05-16T00:02:09.063Z,3.07
2019-05-16T00:04:39.521Z,3.17
2019-05-16T00:07:09.990Z,3.10
2019-05-16T00:09:40.469Z,2.57
2019-05-16T00:12:10.968Z,3.37
2019-05-16T00:14:41.572Z,2.77
2019-05-16T00:17:12.064Z,2.53
2019-05-16T00:19:42.539Z,2.60
2019-05-16T00:22:13.025Z,2.40
2019-05-16T00:24:43.498Z,3.10
2019-05-16T00:27:13.991Z,2.60
2019-05-16T00:29:44.449Z,2.90
2019-05-16T00:32:14.939Z,2.70
2019-05-16T00:34:47.682Z,2.93
2019-05-16T00:37:18.179Z,3.40
2019-05-16T00:39:48.830Z,3.17
2019-05-16T00:42:19.396Z,7.50
2019-05-16T00:44:49.874Z,7.00
2019-05-16T00:47:20.427Z,4.20
2019-05-16T00:49:50.891Z,3.50
2019-05-16T00:52:22.527Z,3.03
2019-05-16T00:54:53.009Z,3.47
2019-05-16T00:57:24.038Z,3.37
2019-05-16T00:59:55.245Z,3.47
2019-05-16T01:02:25.736Z,3.33
2019-05-16T01:04:56.190Z,3.30
2019-05-16T01:07:27.757Z,3.10
2019-05-16T01:09:58.456Z,2.70
2019-05-16T01:12:29.001Z,2.80
2019-05-16T01:14:59.454Z,3.27
2019-05-16T01:17:29.936Z,3.40
2019-05-16T01:20:00.432Z,3.00
2019-05-16T01:22:30.958Z,3.50
2019-05-16T01:25:01.444Z,3.67
2019-05-16T01:27:31.943Z,4.30
2019-05-16T01:30:02.395Z,3.87
2019-05-16T01:32:32.903Z,3.97
2019-05-16T01:35:03.869Z,4.13
2019-05-16T01:37:38.116Z,4.40
2019-05-16T01:40:09.560Z,4.00
2019-05-16T01:42:40.051Z,4.70
2019-05-16T01:45:11.444Z,4.97
2019-05-16T01:47:41.931Z,5.17
2019-05-16T01:50:12.742Z,4.97
2019-05-16T01:52:43.328Z,4.93
2019-05-16T01:55:13.930Z,6.10
2019-05-16T01:57:44.496Z,4.77
2019-05-16T02:00:15.321Z,5.00
2019-05-16T02:02:45.816Z,5.10
2019-05-16T02:05:18.734Z,5.47
2019-05-16T02:07:49.231Z,6.30
2019-05-16T02:10:20.774Z,5.47
2019-05-16T02:12:51.233Z,5.27
2019-05-16T02:15:22.891Z,4.83
2019-05-16T02:17:53.672Z,5.30
2019-05-16T02:20:24.172Z,5.53
2019-05-16T02:22:54.682Z,5.80
2019-05-16T02:25:27.637Z,6.10
2019-05-16T02:27:58.976Z,5.37
2019-05-16T02:30:31.494Z,5.30
2019-05-16T02:33:02.581Z,5.80
2019-05-16T02:35:33.120Z,7.50
2019-05-16T02:38:03.683Z,6.73
2019-05-16T02:40:34.180Z,6.97
2019-05-16T02:43:04.992Z,6.67
2019-05-16T02:45:35.914Z,6.07
2019-05-16T02:48:06.397Z,6.90
2019-05-16T02:50:36.861Z,6.70
2019-05-16T02:53:07.343Z,6.23
2019-05-16T02:55:40.850Z,6.23
2019-05-16T02:58:11.424Z,6.80
2019-05-16T03:00:43.932Z,6.77
2019-05-16T03:03:14.495Z,6.67
2019-05-16T03:05:47.067Z,6.30
2019-05-16T03:08:20.991Z,7.20
2019-05-16T03:10:52.416Z,6.90
2019-05-16T03:13:23.824Z,7.00
2019-05-16T03:15:54.330Z,6.20
2019-05-16T03:18:26.961Z,7.40
2019-05-16T03:21:01.597Z,6.10
2019-05-16T03:23:32.227Z,6.17
2019-05-16T03:26:02.789Z,6.10
2019-05-16T03:28:33.242Z,7.07
2019-05-16T03:31:05.789Z,9.17
2019-05-16T03:33:43.590Z,8.63
2019-05-16T03:36:13.937Z,15.03
2019-05-16T03:38:41.469Z,20.47
2019-05-16T03:41:12.141Z,28.70
2019-05-16T03:43:42.640Z,14.83
2019-05-16T03:46:13.777Z,11.03
2019-05-16T03:48:44.326Z,11.97
2019-05-16T03:51:14.789Z,18.40
2019-05-16T03:53:45.285Z,14.53
2019-05-16T03:56:15.789Z,12.87
2019-05-16T03:58:46.292Z,14.27
2019-05-16T04:01:16.768Z,11.43
2019-05-16T04:03:50.812Z,10.83
2019-05-16T04:06:22.123Z,15.20
2019-05-16T04:08:52.110Z,11.77
2019-05-16T04:11:23.719Z,9.13
2019-05-16T04:13:54.351Z,11.20
2019-05-16T04:16:24.825Z,11.07
2019-05-16T04:18:55.328Z,12.20
2019-05-16T04:21:26.125Z,11.20
2019-05-16T04:23:56.689Z,11.77
2019-05-16T04:26:30.594Z,11.50
2019-05-16T04:29:00.774Z,31.17
2019-05-16T04:31:31.512Z,77.47
2019-05-16T04:34:02.570Z,86.80
2019-05-16T04:36:33.056Z,44.53
2019-05-16T04:39:05.317Z,99.73
2019-05-16T04:41:36.762Z,44.30
2019-05-16T04:44:11.244Z,18.33
2019-05-16T04:46:41.084Z,11.70
2019-05-16T04:49:11.710Z,9.50
2019-05-16T04:51:43.037Z,10.17
2019-05-16T04:54:13.542Z,10.40
2019-05-16T04:56:44.086Z,9.20
2019-05-16T04:59:16.515Z,10.27
2019-05-16T05:01:46.909Z,9.60
2019-05-16T05:04:17.386Z,8.93
2019-05-16T05:06:51.355Z,9.00
2019-05-16T05:09:21.289Z,8.40
2019-05-16T05:11:52.194Z,8.43
2019-05-16T05:14:22.733Z,8.40
2019-05-16T05:16:53.255Z,14.57
2019-05-16T05:19:23.725Z,11.60
2019-05-16T05:21:54.235Z,16.13
2019-05-16T05:24:26.242Z,25.23
2019-05-16T05:26:59.666Z,38.70
2019-05-16T05:29:30.724Z,9.50
2019-05-16T05:32:04.830Z,8.10
2019-05-16T05:34:35.116Z,6.17
2019-05-16T05:37:05.668Z,5.90
2019-05-16T05:39:36.174Z,6.00
2019-05-16T05:42:06.709Z,5.90
2019-05-16T05:44:40.048Z,6.70
2019-05-16T05:47:10.975Z,5.20
2019-05-16T05:49:41.550Z,5.20
2019-05-16T05:52:13.333Z,5.30
2019-05-16T05:54:43.803Z,5.70
2019-05-16T05:57:14.279Z,4.80
2019-05-16T05:59:45.018Z,5.63
2019-05-16T06:02:16.607Z,13.97
2019-05-16T06:04:50.202Z,25.90
2019-05-16T06:07:22.460Z,7.20
2019-05-16T06:09:56.607Z,5.87
2019-05-16T06:12:26.730Z,7.00
2019-05-16T06:14:57.221Z,6.80
2019-05-16T06:17:27.696Z,6.00
2019-05-16T06:20:00.235Z,7.03
2019-05-16T06:22:30.375Z,7.93
2019-05-16T06:25:01.226Z,6.20
2019-05-16T06:27:31.821Z,6.63
2019-05-16T06:30:02.375Z,7.17
2019-05-16T06:32:33.540Z,6.97
2019-05-16T06:35:06.348Z,8.57
2019-05-16T06:37:40.789Z,7.80
2019-05-16T06:40:13.183Z,8.30
2019-05-16T06:42:43.769Z,7.60
2019-05-16T06:45:14.425Z,8.57
2019-05-16T06:47:45.947Z,9.93
2019-05-16T06:50:16.471Z,8.50
2019-05-16T06:52:46.976Z,7.97
2019-05-16T06:55:17.539Z,7.73
2019-05-16T06:57:50.136Z,6.93
2019-05-16T07:00:23.541Z,7.60
2019-05-16T07:02:54.075Z,7.70
2019-05-16T07:05:24.982Z,7.07
2019-05-16T07:07:56.601Z,8.17
2019-05-16T07:10:27.069Z,8.30
2019-05-16T07:12:57.590Z,8.40
2019-05-16T07:15:29.779Z,7.43
2019-05-16T07:18:00.491Z,7.63
2019-05-16T07:20:32.670Z,8.37
2019-05-16T07:23:03.963Z,9.30
2019-05-16T07:25:34.460Z,8.03
2019-05-16T07:28:06.468Z,7.93
2019-05-16T07:30:40.835Z,8.20
2019-05-16T07:33:12.270Z,8.10
2019-05-16T07:35:42.820Z,7.80
2019-05-16T07:38:15.152Z,7.50
2019-05-16T07:40:45.609Z,7.57
2019-05-16T07:43:16.177Z,7.60
2019-05-16T07:45:46.719Z,8.87
2019-05-16T07:48:17.229Z,8.17
2019-05-16T07:50:50.379Z,7.67
2019-05-16T07:53:21.748Z,7.60
2019-05-16T07:55:53.098Z,7.90
2019-05-16T07:58:23.542Z,7.83
2019-05-16T08:01:02.556Z,7.97
2019-05-16T08:03:27.000Z,7.77
2019-05-16T08:06:01.709Z,8.13
2019-05-16T08:08:34.640Z,6.57
2019-05-16T08:11:06.431Z,7.87
2019-05-16T08:13:40.100Z,7.70
2019-05-16T08:16:14.797Z,7.80
2019-05-16T08:18:46.550Z,7.57
2019-05-16T08:21:17.829Z,7.00
2019-05-16T08:23:50.330Z,6.90
2019-05-16T08:26:22.928Z,7.60
2019-05-16T08:28:53.476Z,6.70
2019-05-16T08:31:24.008Z,6.47
2019-05-16T08:33:55.423Z,6.37
2019-05-16T08:36:26.186Z,6.97
2019-05-16T08:38:56.676Z,7.40
2019-05-16T08:41:31.503Z,6.23
2019-05-16T08:44:02.310Z,6.77
2019-05-16T08:46:32.768Z,6.07
2019-05-16T08:49:03.442Z,7.33
2019-05-16T08:51:34.974Z,6.27
2019-05-16T08:54:06.409Z,7.67
2019-05-16T08:56:43.767Z,6.53
2019-05-16T08:59:13.454Z,6.87
2019-05-16T09:01:52.089Z,7.90
2019-05-16T09:04:16.614Z,8.30
2019-05-16T09:06:47.094Z,7.20
2019-05-16T09:09:39.137Z,6.70
2019-05-16T09:11:52.564Z,6.87
2019-05-16T09:14:23.054Z,7.67
2019-05-16T09:16:53.560Z,6.27
2019-05-16T09:19:24.045Z,6.67
2019-05-16T09:21:57.817Z,5.90
2019-05-16T09:24:29.180Z,5.90
2019-05-16T09:27:00.409Z,5.67
2019-05-16T09:29:32.455Z,5.70
2019-05-16T09:32:15.289Z,5.80
2019-05-16T09:34:38.142Z,6.00
2019-05-16T09:37:09.178Z,4.90
2019-05-16T09:39:40.713Z,5.73
2019-05-16T09:42:11.781Z,6.17
2019-05-16T09:44:42.375Z,6.07
2019-05-16T09:47:12.963Z,6.47
2019-05-16T09:49:49.060Z,6.13
2019-05-16T09:52:19.586Z,6.33
2019-05-16T09:54:51.720Z,6.00
2019-05-16T09:57:22.361Z,6.37
2019-05-16T09:59:53.118Z,6.00
2019-05-16T10:02:27.182Z,5.43
2019-05-16T10:04:58.004Z,5.87
2019-05-16T10:07:32.455Z,5.30
2019-05-16T10:10:06.440Z,6.00
2019-05-16T10:12:37.106Z,5.40
2019-05-16T10:15:08.255Z,4.63
2019-05-16T10:17:40.369Z,4.43
2019-05-16T10:20:11.561Z,5.50
2019-05-16T10:22:42.128Z,4.90
2019-05-16T10:25:12.907Z,4.80
2019-05-16T10:27:43.403Z,4.83
2019-05-16T10:30:17.549Z,4.87
2019-05-16T10:32:48.050Z,4.60
2019-05-16T10:35:19.190Z,5.17
2019-05-16T10:37:49.743Z,4.70
2019-05-16T10:40:20.738Z,4.40
2019-05-16T10:42:51.234Z,4.47
2019-05-16T10:45:23.315Z,4.70
2019-05-16T10:47:54.062Z,4.73
2019-05-16T10:50:27.421Z,4.20
2019-05-16T10:53:33.607Z,4.60
2019-05-16T10:56:07.673Z,4.53
2019-05-16T10:58:38.021Z,4.47
2019-05-16T11:01:19.564Z,3.77
2019-05-16T11:03:37.935Z,3.70
2019-05-16T11:06:13.178Z,3.83
2019-05-16T11:08:41.209Z,4.20
2019-05-16T11:11:11.845Z,4.50
2019-05-16T11:13:42.419Z,3.90
2019-05-16T11:16:12.959Z,3.90
2019-05-16T11:18:43.496Z,4.40
2019-05-16T11:21:14.110Z,4.20
2019-05-16T11:23:46.967Z,3.40
2019-05-16T11:26:21.062Z,4.00
2019-05-16T11:28:51.773Z,3.63
2019-05-16T11:31:22.352Z,3.83
2019-05-16T11:33:52.846Z,4.20
2019-05-16T11:36:23.328Z,3.70
2019-05-16T11:39:00.710Z,3.80
2019-05-16T11:41:27.496Z,3.93
2019-05-16T11:43:58.242Z,4.50
2019-05-16T11:46:28.774Z,3.77
2019-05-16T11:48:59.225Z,4.03
2019-05-16T11:51:29.726Z,4.00
2019-05-16T11:54:00.749Z,4.50
2019-05-16T11:56:31.314Z,4.00
2019-05-16T11:59:01.775Z,3.87
2019-05-16T12:01:32.350Z,3.83
2019-05-16T12:04:02.810Z,3.70
2019-05-16T12:06:33.305Z,4.23
2019-05-16T12:09:06.733Z,4.10
2019-05-16T12:11:38.305Z,3.10
2019-05-16T12:14:08.919Z,3.30
2019-05-16T12:16:39.415Z,3.63
2019-05-16T12:19:09.875Z,3.80
2019-05-16T12:21:40.375Z,3.70
2019-05-16T12:24:10.843Z,3.70
2019-05-16T12:26:42.001Z,3.27
2019-05-16T12:29:12.493Z,3.00
2019-05-16T12:31:55.239Z,3.23
2019-05-16T12:34:15.737Z,3.63
2019-05-16T12:36:47.263Z,5.33
2019-05-16T12:39:17.846Z,4.40
2019-05-16T12:41:49.121Z,4.90
2019-05-16T12:44:19.882Z,3.57
2019-05-16T12:46:50.383Z,3.03
2019-05-16T12:49:21.966Z,3.00
2019-05-16T12:51:53.423Z,3.53
2019-05-16T12:54:27.612Z,3.13
2019-05-16T12:56:58.191Z,3.30
2019-05-16T12:59:28.705Z,3.10
2019-05-16T13:01:59.210Z,3.43
2019-05-16T13:04:29.702Z,3.20
2019-05-16T13:07:00.193Z,3.10
2019-05-16T13:09:30.659Z,3.10
2019-05-16T13:12:01.181Z,2.93
2019-05-16T13:14:31.630Z,7.50
2019-05-16T13:17:02.265Z,3.50
2019-05-16T13:19:34.273Z,2.90
2019-05-16T13:22:09.247Z,2.97
2019-05-16T13:24:39.726Z,3.10
2019-05-16T13:27:10.231Z,2.50
2019-05-16T13:29:40.743Z,3.10
2019-05-16T13:32:11.201Z,3.17
2019-05-16T13:34:41.706Z,2.60
2019-05-16T13:37:13.054Z,3.03
2019-05-16T13:39:43.549Z,2.83
2019-05-16T13:42:16.578Z,2.60
2019-05-16T13:44:49.306Z,2.63
2019-05-16T13:47:20.970Z,3.07
2019-05-16T13:49:51.442Z,2.70
2019-05-16T13:52:21.948Z,2.57
2019-05-16T13:54:52.400Z,2.73
2019-05-16T13:57:22.916Z,2.80
2019-05-16T13:59:53.478Z,2.90
2019-05-16T14:02:26.570Z,2.80
2019-05-16T14:04:56.905Z,2.80
2019-05-16T14:07:27.504Z,2.50
2019-05-16T14:09:58.054Z,2.87
2019-05-16T14:12:28.547Z,2.83
2019-05-16T14:14:59.315Z,2.47
2019-05-16T14:17:29.783Z,3.10
2019-05-16T14:20:00.465Z,3.00
2019-05-16T14:22:30.931Z,2.80
2019-05-16T14:25:01.429Z,2.43
2019-05-16T14:27:31.901Z,3.13
2019-05-16T14:30:02.693Z,2.77
2019-05-16T14:32:33.329Z,3.00
2019-05-16T14:35:03.961Z,2.80
2019-05-16T14:37:34.499Z,3.00
2019-05-16T14:40:06.984Z,2.70
2019-05-16T14:42:38.536Z,2.50
2019-05-16T14:45:17.011Z,2.77
2019-05-16T14:47:48.988Z,3.10
2019-05-16T14:50:20.485Z,2.70
2019-05-16T14:52:50.983Z,2.90
2019-05-16T14:55:21.587Z,2.80
2019-05-16T14:57:52.160Z,2.60
2019-05-16T15:00:22.767Z,4.00
2019-05-16T15:02:53.270Z,2.80
2019-05-16T15:05:23.738Z,2.70
2019-05-16T15:07:54.331Z,3.20
2019-05-16T15:10:26.866Z,3.17
2019-05-16T15:12:57.142Z,3.23
2019-05-16T15:15:30.447Z,2.97
2019-05-16T15:18:01.356Z,2.87
2019-05-16T15:20:31.863Z,2.70
2019-05-16T15:23:02.482Z,2.80
2019-05-16T15:25:33.010Z,6.27
2019-05-16T15:28:03.498Z,3.10
2019-05-16T15:30:34.156Z,23.20
2019-05-16T15:33:08.156Z,5.00
2019-05-16T15:35:38.349Z,21.50
2019-05-16T15:38:09.043Z,43.47
2019-05-16T15:40:39.540Z,26.90
2019-05-16T15:43:10.106Z,24.90
2019-05-16T15:45:45.165Z,3.73
2019-05-16T15:48:16.993Z,2.60
2019-05-16T15:50:47.106Z,3.20
2019-05-16T15:53:18.634Z,3.23
2019-05-16T15:55:49.232Z,2.80
2019-05-16T15:58:21.071Z,3.57
2019-05-16T16:00:52.153Z,3.57
2019-05-16T16:03:22.649Z,2.93
2019-05-16T16:05:53.209Z,3.27
2019-05-16T16:08:23.676Z,3.10
2019-05-16T16:10:54.150Z,6.00
2019-05-16T16:13:26.798Z,24.27
2019-05-16T16:15:57.771Z,4.73
2019-05-16T16:18:29.156Z,3.30
2019-05-16T16:20:59.634Z,3.70
2019-05-16T16:23:30.144Z,3.60
2019-05-16T16:26:00.630Z,3.00
2019-05-16T16:28:31.213Z,2.80
2019-05-16T16:31:02.648Z,3.00
2019-05-16T16:33:33.139Z,3.00
2019-05-16T16:36:03.651Z,3.40
2019-05-16T16:38:36.856Z,3.40
2019-05-16T16:41:08.118Z,2.77
2019-05-16T16:43:38.811Z,3.10
2019-05-16T16:46:13.395Z,3.30
2019-05-16T16:48:41.768Z,3.00
2019-05-16T16:51:13.162Z,3.23
2019-05-16T16:53:43.649Z,3.10
2019-05-16T16:56:16.819Z,2.77
2019-05-16T16:58:47.549Z,2.97
2019-05-16T17:01:18.128Z,3.17
2019-05-16T17:03:48.598Z,3.23
2019-05-16T17:06:19.099Z,3.77
2019-05-16T17:08:50.441Z,3.20
2019-05-16T17:11:20.933Z,2.80
2019-05-16T17:13:51.406Z,3.27
2019-05-16T17:16:26.205Z,2.70
2019-05-16T17:18:56.744Z,2.70
2019-05-16T17:21:26.795Z,3.20
2019-05-16T17:23:57.256Z,3.17
2019-05-16T17:26:27.792Z,3.00
2019-05-16T17:28:59.111Z,3.07
2019-05-16T17:31:29.619Z,3.70
2019-05-16T17:34:00.100Z,3.43
2019-05-16T17:36:32.286Z,3.37
2019-05-16T17:39:02.750Z,3.33
2019-05-16T17:41:33.261Z,3.00
2019-05-16T17:44:04.056Z,2.93
2019-05-16T17:46:38.240Z,13.27
2019-05-16T17:49:07.438Z,25.23
2019-05-16T17:51:38.142Z,18.43
2019-05-16T17:54:08.713Z,7.70
2019-05-16T17:56:39.274Z,3.43
2019-05-16T17:59:09.765Z,3.83
2019-05-16T18:01:40.827Z,3.13
2019-05-16T18:04:11.316Z,4.00
2019-05-16T18:06:42.087Z,4.00
2019-05-16T18:09:16.888Z,4.20
2019-05-16T18:11:47.057Z,3.40
2019-05-16T18:14:18.292Z,3.20
2019-05-16T18:16:58.326Z,3.77
2019-05-16T18:19:21.566Z,3.37
2019-05-16T18:21:52.128Z,3.73
2019-05-16T18:24:22.648Z,3.57
2019-05-16T18:26:53.122Z,3.90
2019-05-16T18:29:26.943Z,5.13
2019-05-16T18:31:57.521Z,5.63
2019-05-16T18:34:28.367Z,5.47
2019-05-16T18:36:59.071Z,4.47
2019-05-16T18:39:29.566Z,3.83
2019-05-16T18:42:00.943Z,6.00
2019-05-16T18:44:31.451Z,6.13
2019-05-16T18:47:06.930Z,7.53
2019-05-16T18:49:36.591Z,8.10
2019-05-16T18:52:06.716Z,8.40
2019-05-16T18:54:38.600Z,7.50
2019-05-16T18:57:11.659Z,7.50
2019-05-16T18:59:42.131Z,7.23
2019-05-16T19:02:12.710Z,6.40
2019-05-16T19:04:43.954Z,7.17
2019-05-16T19:07:16.673Z,7.07
2019-05-16T19:09:47.206Z,7.43
2019-05-16T19:12:17.707Z,7.00
2019-05-16T19:14:48.214Z,6.50
2019-05-16T19:17:24.084Z,53.43
2019-05-16T19:19:50.995Z,32.80
2019-05-16T19:22:23.601Z,13.60
2019-05-16T19:24:54.160Z,10.63
2019-05-16T19:27:26.228Z,9.40
2019-05-16T19:29:57.000Z,9.43
2019-05-16T19:32:27.626Z,10.00
2019-05-16T19:34:59.664Z,11.30
2019-05-16T19:37:30.177Z,9.27
2019-05-16T19:40:00.782Z,9.27
2019-05-16T19:42:31.292Z,9.40
2019-05-16T19:45:01.770Z,9.80
2019-05-16T19:47:36.947Z,57.23
2019-05-16T19:50:06.825Z,73.57
2019-05-16T19:52:37.358Z,20.57
2019-05-16T19:55:09.651Z,10.50
2019-05-16T19:57:40.175Z,9.30
2019-05-16T20:00:12.054Z,8.87
2019-05-16T20:02:42.549Z,7.27
2019-05-16T20:05:14.241Z,7.10
2019-05-16T20:07:45.894Z,6.43
2019-05-16T20:10:17.051Z,5.90
2019-05-16T20:12:47.648Z,6.00
2019-05-16T20:15:18.450Z,7.27
2019-05-16T20:17:55.227Z,6.83
2019-05-16T20:20:21.700Z,6.80
2019-05-16T20:22:52.255Z,6.47
2019-05-16T20:25:22.791Z,6.20
2019-05-16T20:27:53.284Z,7.03
2019-05-16T20:30:26.410Z,22.00
2019-05-16T20:32:56.939Z,34.77
2019-05-16T20:35:27.449Z,38.93
2019-05-16T20:37:58.087Z,12.87
2019-05-16T20:40:28.732Z,8.03
2019-05-16T20:43:00.498Z,7.27
2019-05-16T20:45:30.998Z,7.50
2019-05-16T20:48:11.025Z,6.73
2019-05-16T20:50:33.666Z,7.47
2019-05-16T20:53:06.947Z,7.20
2019-05-16T20:55:37.710Z,7.20
2019-05-16T20:58:08.459Z,7.30
2019-05-16T21:00:38.920Z,36.73
2019-05-16T21:03:09.405Z,62.37
2019-05-16T21:05:39.988Z,27.60
2019-05-16T21:08:10.532Z,14.03
2019-05-16T21:10:41.026Z,8.30
2019-05-16T21:13:11.502Z,8.50
2019-05-16T21:15:41.992Z,7.70
2019-05-16T21:18:12.453Z,8.03
2019-05-16T21:20:43.026Z,8.80
2019-05-16T21:23:19.101Z,8.80
2019-05-16T21:25:46.592Z,9.17
2019-05-16T21:28:19.907Z,8.60
2019-05-16T21:30:49.640Z,8.30
2019-05-16T21:33:20.616Z,7.67
2019-05-16T21:35:51.113Z,7.13
2019-05-16T21:38:21.584Z,7.33
2019-05-16T21:40:52.087Z,7.90
2019-05-16T21:43:22.555Z,8.93
2019-05-16T21:45:53.061Z,8.30
2019-05-16T21:48:24.122Z,8.03
2019-05-16T21:50:56.862Z,8.43
2019-05-16T21:53:29.957Z,8.37
2019-05-16T21:55:59.115Z,8.20
2019-05-16T21:58:29.687Z,8.57
2019-05-16T22:01:00.615Z,7.83
2019-05-16T22:03:31.071Z,7.93
2019-05-16T22:06:01.646Z,8.20
2019-05-16T22:08:32.112Z,9.17
2019-05-16T22:11:02.675Z,7.07
2019-05-16T22:13:33.157Z,7.50
2019-05-16T22:16:05.616Z,7.97
2019-05-16T22:18:38.504Z,8.13
2019-05-16T22:21:09.552Z,7.57
2019-05-16T22:23:41.500Z,7.93
2019-05-16T22:26:12.125Z,7.40
2019-05-16T22:28:42.758Z,6.70
2019-05-16T22:31:13.243Z,8.37
2019-05-16T22:33:46.972Z,6.90
2019-05-16T22:36:17.655Z,7.80
2019-05-16T22:38:48.211Z,7.23
2019-05-16T22:41:18.770Z,7.27
2019-05-16T22:43:49.324Z,7.80
2019-05-16T22:46:19.783Z,8.10
2019-05-16T22:48:50.344Z,8.00
2019-05-16T22:51:20.807Z,7.70
2019-05-16T22:53:51.354Z,8.20
2019-05-16T22:56:21.851Z,9.27
2019-05-16T22:58:52.357Z,8.97
2019-05-16T23:01:22.898Z,9.07
2019-05-16T23:03:53.388Z,6.83
2019-05-16T23:06:26.917Z,7.90
2019-05-16T23:08:57.493Z,8.30
2019-05-16T23:11:28.064Z,7.50
2019-05-16T23:13:58.531Z,8.07
2019-05-16T23:16:29.039Z,8.60
2019-05-16T23:19:02.141Z,8.30
2019-05-16T23:21:32.639Z,7.93
2019-05-16T23:24:03.104Z,9.33
2019-05-16T23:26:33.591Z,8.00
2019-05-16T23:29:04.060Z,8.47
2019-05-16T23:31:36.540Z,8.23
2019-05-16T23:34:07.274Z,8.50
2019-05-16T23:36:37.744Z,8.23
2019-05-16T23:39:08.991Z,8.27
2019-05-16T23:41:39.457Z,7.37
2019-05-16T23:44:09.964Z,8.00
2019-05-16T23:46:40.449Z,8.80
2019-05-16T23:49:10.990Z,8.17
2019-05-16T23:51:44.188Z,8.30
2019-05-16T23:54:17.076Z,8.33
2019-05-16T23:56:46.884Z,8.50
2019-05-16T23:59:17.456Z,7.50
